createdAt,value
2019-04-10T00:00:55.552Z,22.1
2019-04-10T00:10:58.885Z,22
2019-04-10T00:21:02.255Z,22
2019-04-10T00:31:05.574Z,22
2019-04-10T00:41:10.097Z,21.9
2019-04-10T00:51:13.579Z,21.9
2019-04-10T01:01:16.928Z,21.9
2019-04-10T01:11:21.057Z,21.9
2019-04-10T01:21:24.452Z,21.8
2019-04-10T01:31:28.809Z,21.8
2019-04-10T01:41:32.817Z,21.8
2019-04-10T01:51:37.525Z,21.7
2019-04-10T02:01:40.906Z,21.7
2019-04-10T02:11:44.254Z,21.6
2019-04-10T02:21:47.781Z,21.7
2019-04-10T02:31:52.638Z,21.6
2019-04-10T02:42:01.156Z,21.6
2019-04-10T02:52:06.773Z,21.6
2019-04-10T03:02:16.258Z,21.6
2019-04-10T03:12:21.717Z,21.5
2019-04-10T03:22:27.580Z,21.5
2019-04-10T03:32:36.209Z,21.5
2019-04-10T03:43:01.386Z,21.5
2019-04-10T03:53:05.486Z,21.5
2019-04-10T04:03:08.881Z,21.5
2019-04-10T04:13:12.279Z,21.4
2019-04-10T04:23:15.622Z,21.4
2019-04-10T04:33:19.139Z,21.4
2019-04-10T04:43:23.301Z,21.3
2019-04-10T04:53:26.735Z,21.3
2019-04-10T05:03:31.183Z,21.3
2019-04-10T05:13:34.845Z,21.3
2019-04-10T05:23:38.507Z,21.3
2019-04-10T05:33:41.871Z,21.3
2019-04-10T05:43:45.196Z,21.3
2019-04-10T05:53:50.094Z,21.4
2019-04-10T06:03:58.905Z,21.5
2019-04-10T06:14:03.214Z,21.5
2019-04-10T06:24:07.775Z,21.4
2019-04-10T06:34:14.130Z,21.4
2019-04-10T06:44:22.209Z,21.4
2019-04-10T06:54:26.734Z,21.4
2019-04-10T07:04:42.726Z,21.6
2019-04-10T07:15:08.870Z,21.9
2019-04-10T07:25:13.082Z,22
2019-04-10T07:35:20.180Z,22.1
2019-04-10T07:45:27.085Z,22.3
2019-04-10T07:55:30.906Z,22.4
2019-04-10T08:05:35.193Z,22.5
2019-04-10T08:15:38.788Z,22.6
2019-04-10T08:25:43.087Z,22.6
2019-04-10T08:35:47.430Z,22.8
2019-04-10T08:45:52.158Z,22.8
2019-04-10T08:55:58.868Z,22.9
2019-04-10T09:06:02.863Z,23.1
2019-04-10T09:16:06.690Z,23.2
2019-04-10T09:26:11.285Z,23.5
2019-04-10T09:36:15.157Z,23.5
2019-04-10T09:46:18.520Z,23.5
2019-04-10T09:56:21.853Z,23.5
2019-04-10T10:06:30.630Z,23.6
2019-04-10T10:16:42.781Z,23.7
2019-04-10T10:26:47.326Z,23.7
2019-04-10T10:36:52.916Z,23.7
2019-04-10T10:46:57.846Z,23.6
2019-04-10T10:57:01.324Z,23.7
2019-04-10T11:07:06.883Z,23.7
2019-04-10T11:17:11.556Z,23.7
2019-04-10T11:27:16.011Z,17.5
2019-04-10T11:37:29.426Z,22.1
2019-04-10T11:49:43.320Z,23
2019-04-10T11:59:54.396Z,23
2019-04-10T12:12:05.904Z,23
2019-04-10T12:22:09.533Z,23.1
2019-04-10T12:32:12.881Z,23.2
2019-04-10T12:42:16.473Z,23.4
2019-04-10T12:52:20.639Z,23.5
2019-04-10T13:02:24.030Z,23.6
2019-04-10T13:12:27.391Z,23.6
2019-04-10T13:22:31.594Z,23.6
2019-04-10T13:32:36.012Z,23.5
2019-04-10T13:42:39.398Z,23.5
2019-04-10T13:52:42.750Z,23.5
2019-04-10T14:02:46.106Z,23.6
2019-04-10T14:12:49.422Z,23.6
2019-04-10T14:22:53.688Z,23.5
2019-04-10T14:32:57.044Z,23.4
2019-04-10T14:43:00.380Z,23.4
2019-04-10T14:53:03.743Z,23.4
2019-04-10T15:03:07.096Z,23.4
2019-04-10T15:13:17.427Z,23.4
2019-04-10T15:23:29.582Z,23.4
2019-04-10T15:33:33.008Z,23.4
2019-04-10T15:43:37.148Z,23.4
2019-04-10T15:53:41.039Z,23.4
2019-04-10T16:03:44.945Z,23.4
2019-04-10T16:13:48.526Z,23.4
2019-04-10T16:23:51.932Z,23.2
2019-04-10T16:33:55.255Z,23.2
2019-04-10T16:44:00.517Z,23.2
2019-04-10T16:54:04.270Z,23.2
2019-04-10T17:04:07.681Z,23.2
2019-04-10T17:14:13.184Z,23.2
2019-04-10T17:24:17.404Z,23.1
2019-04-10T17:34:20.855Z,23.1
2019-04-10T17:44:25.354Z,23.1
2019-04-10T17:54:29.817Z,23
2019-04-10T18:04:34.814Z,23
2019-04-10T18:14:39.740Z,23
2019-04-10T18:24:47.534Z,23
2019-04-10T18:34:52.034Z,23
2019-04-10T18:44:55.534Z,22.9
2019-04-10T18:54:58.882Z,22.9
2019-04-10T19:05:03.616Z,22.9
2019-04-10T19:15:06.969Z,22.9
2019-04-10T19:25:10.532Z,22.9
2019-04-10T19:35:14.853Z,22.8
2019-04-10T19:45:19.431Z,22.8
2019-04-10T19:55:23.741Z,22.8
2019-04-10T20:05:27.469Z,22.7
2019-04-10T20:15:30.829Z,22.7
2019-04-10T20:25:34.511Z,22.7
2019-04-10T20:35:37.901Z,22.7
2019-04-10T20:45:41.951Z,22.7
2019-04-10T20:55:46.026Z,22.7
2019-04-10T21:05:50.607Z,22.7
2019-04-10T21:15:54.937Z,22.6
2019-04-10T21:25:59.459Z,22.6
2019-04-10T21:36:03.921Z,22.6
2019-04-10T21:46:08.201Z,22.6
2019-04-10T21:56:12.489Z,22.6
2019-04-10T22:06:15.875Z,22.5
2019-04-10T22:16:19.826Z,22.5
2019-04-10T22:26:23.224Z,22.5
2019-04-10T22:36:26.568Z,22.5
2019-04-10T22:46:30.148Z,22.5
2019-04-10T22:56:33.680Z,22.5
2019-04-10T23:06:37.497Z,22.4
2019-04-10T23:16:41.010Z,22.4
2019-04-10T23:26:45.001Z,22.4
2019-04-10T23:36:48.645Z,22.4
2019-04-10T23:46:52.060Z,22.4
2019-04-10T23:56:55.413Z,22.4
